createdAt,value
2023-01-29T00:01:14.700Z,67.57
2023-01-29T00:03:41.663Z,67.90
2023-01-29T00:06:08.749Z,67.78
2023-01-29T00:08:39.066Z,67.44
2023-01-29T00:11:07.050Z,67.07
2023-01-29T00:13:37.030Z,67.91
2023-01-29T00:16:04.009Z,67.88
2023-01-29T00:18:31.019Z,67.76
2023-01-29T00:20:57.629Z,67.95
2023-01-29T00:23:24.881Z,68.51
2023-01-29T00:25:51.489Z,67.93
2023-01-29T00:28:18.143Z,68.25
2023-01-29T00:30:44.759Z,68.52
2023-01-29T00:33:13.460Z,68.88
2023-01-29T00:35:40.996Z,69.70
2023-01-29T00:38:07.565Z,70.16
2023-01-29T00:40:56.827Z,68.94
2023-01-29T00:43:42.158Z,69.25
2023-01-29T00:46:09.179Z,69.19
2023-01-29T00:48:35.742Z,68.96
2023-01-29T00:51:03.242Z,68.95
2023-01-29T00:53:30.360Z,68.80
2023-01-29T00:55:57.071Z,69.55
2023-01-29T00:58:28.315Z,69.22
2023-01-29T01:00:56.054Z,69.42
2023-01-29T01:03:22.631Z,69.38
2023-01-29T01:05:49.258Z,69.33
2023-01-29T01:08:34.752Z,69.05
2023-01-29T01:11:02.594Z,69.16
2023-01-29T01:13:30.277Z,68.50
2023-01-29T01:15:57.119Z,69.24
2023-01-29T01:18:23.681Z,69.30
2023-01-29T01:20:51.714Z,69.80
2023-01-29T01:23:19.412Z,69.81
2023-01-29T01:25:46.604Z,69.42
2023-01-29T01:28:13.225Z,69.99
2023-01-29T01:30:40.110Z,69.74
2023-01-29T01:33:07.345Z,69.95
2023-01-29T01:35:33.913Z,70.34
2023-01-29T01:38:00.502Z,70.05
2023-01-29T01:40:27.102Z,69.19
2023-01-29T01:42:55.633Z,69.44
2023-01-29T01:45:26.225Z,68.83
2023-01-29T01:47:56.010Z,69.43
2023-01-29T01:50:25.915Z,69.36
2023-01-29T01:52:55.614Z,69.12
2023-01-29T01:55:25.042Z,68.95
2023-01-29T01:57:54.571Z,68.77
2023-01-29T02:00:23.548Z,68.17
2023-01-29T02:03:08.799Z,68.26
2023-01-29T02:05:55.356Z,68.38
2023-01-29T02:08:48.806Z,68.64
2023-01-29T02:11:16.123Z,68.69
2023-01-29T02:13:43.207Z,68.10
2023-01-29T02:16:09.875Z,69.37
2023-01-29T02:18:38.204Z,69.83
2023-01-29T02:21:06.059Z,69.49
2023-01-29T02:23:38.904Z,69.55
2023-01-29T02:26:14.758Z,69.41
2023-01-29T02:28:50.227Z,69.94
2023-01-29T02:31:24.735Z,69.55
2023-01-29T02:34:10.196Z,70.05
2023-01-29T02:36:41.603Z,69.93
2023-01-29T02:39:15.333Z,70.10
2023-01-29T02:42:21.343Z,69.14
2023-01-29T02:44:52.457Z,68.95
2023-01-29T02:47:22.907Z,69.89
2023-01-29T02:50:03.646Z,70.19
2023-01-29T02:52:38.567Z,70.10
2023-01-29T02:55:08.818Z,69.77
2023-01-29T02:57:37.955Z,69.98
2023-01-29T03:00:07.602Z,69.07
2023-01-29T03:02:47.900Z,69.52
2023-01-29T03:05:21.894Z,69.67
2023-01-29T03:07:52.085Z,70.28
2023-01-29T03:10:33.547Z,69.68
2023-01-29T03:13:04.456Z,69.59
2023-01-29T03:15:42.911Z,69.85
2023-01-29T03:18:27.844Z,70.83
2023-01-29T03:21:04.542Z,70.66
2023-01-29T03:23:53.577Z,70.68
2023-01-29T03:26:39.975Z,71.68
2023-01-29T03:29:27.462Z,72.09
2023-01-29T03:32:07.986Z,73.14
2023-01-29T03:34:39.577Z,73.07
2023-01-29T03:37:25.034Z,73.83
2023-01-29T03:39:51.781Z,73.46
2023-01-29T03:42:33.938Z,74.02
2023-01-29T03:45:16.810Z,74.75
2023-01-29T03:47:47.752Z,75.69
2023-01-29T03:50:20.662Z,75.52
2023-01-29T03:53:16.806Z,74.44
2023-01-29T03:55:55.380Z,75.42
2023-01-29T03:58:42.652Z,75.52
2023-01-29T04:01:12.932Z,77.12
2023-01-29T04:03:48.419Z,76.40
2023-01-29T04:06:20.720Z,76.00
2023-01-29T04:09:20.267Z,76.66
2023-01-29T04:11:50.040Z,76.15
2023-01-29T04:14:19.936Z,76.20
2023-01-29T04:16:50.113Z,76.79
2023-01-29T04:19:43.459Z,76.78
2023-01-29T04:22:14.000Z,76.87
2023-01-29T04:24:41.487Z,77.78
2023-01-29T04:27:11.016Z,76.57
2023-01-29T04:29:38.588Z,77.04
2023-01-29T04:32:19.396Z,77.59
2023-01-29T04:34:46.564Z,77.84
2023-01-29T04:37:22.334Z,77.54
2023-01-29T04:39:54.116Z,77.32
2023-01-29T04:42:20.713Z,77.08
2023-01-29T04:44:59.558Z,77.18
2023-01-29T04:47:26.327Z,77.73
2023-01-29T04:49:52.915Z,76.70
2023-01-29T04:52:19.487Z,76.59
2023-01-29T04:54:51.899Z,76.71
2023-01-29T04:57:25.549Z,76.68
2023-01-29T05:00:02.762Z,76.66
2023-01-29T05:02:30.600Z,76.78
2023-01-29T05:04:58.798Z,76.86
2023-01-29T05:07:27.280Z,75.57
2023-01-29T05:09:54.348Z,76.49
2023-01-29T05:12:22.843Z,76.16
2023-01-29T05:14:50.601Z,76.30
2023-01-29T05:17:19.559Z,75.98
2023-01-29T05:19:46.721Z,75.34
2023-01-29T05:22:15.321Z,74.01
2023-01-29T05:24:41.902Z,74.08
2023-01-29T05:27:30.981Z,74.46
2023-01-29T05:29:58.023Z,74.22
2023-01-29T05:32:24.691Z,73.68
2023-01-29T05:34:51.261Z,73.71
2023-01-29T05:37:17.844Z,73.70
2023-01-29T05:39:44.416Z,73.46
2023-01-29T05:42:10.971Z,72.77
2023-01-29T05:44:37.582Z,73.37
2023-01-29T05:47:04.208Z,73.45
2023-01-29T05:49:30.817Z,73.40
2023-01-29T05:51:57.397Z,73.30
2023-01-29T05:54:23.997Z,72.62
2023-01-29T05:56:51.048Z,72.42
2023-01-29T05:59:17.826Z,72.80
2023-01-29T06:01:44.390Z,72.71
2023-01-29T06:04:11.008Z,72.09
2023-01-29T06:06:37.614Z,71.71
2023-01-29T06:09:04.381Z,72.21
2023-01-29T06:11:30.924Z,72.29
2023-01-29T06:13:57.964Z,71.69
2023-01-29T06:16:24.601Z,71.46
2023-01-29T06:18:51.203Z,71.40
2023-01-29T06:21:19.973Z,71.53
2023-01-29T06:23:47.758Z,71.61
2023-01-29T06:26:15.287Z,71.74
2023-01-29T06:28:42.118Z,71.23
2023-01-29T06:31:26.612Z,71.28
2023-01-29T06:33:56.122Z,71.36
2023-01-29T06:36:22.648Z,71.19
2023-01-29T06:38:49.422Z,70.92
2023-01-29T06:41:25.301Z,70.92
2023-01-29T06:43:52.288Z,70.69
2023-01-29T06:46:18.829Z,70.16
2023-01-29T06:48:45.495Z,70.01
2023-01-29T06:51:12.044Z,70.20
2023-01-29T06:53:40.133Z,69.80
2023-01-29T06:56:07.392Z,70.27
2023-01-29T06:58:36.337Z,69.69
2023-01-29T07:01:04.207Z,69.21
2023-01-29T07:03:30.854Z,69.31
2023-01-29T07:05:57.381Z,69.28
2023-01-29T07:08:23.997Z,68.67
2023-01-29T07:10:50.730Z,68.83
2023-01-29T07:13:17.508Z,68.60
2023-01-29T07:15:44.564Z,68.72
2023-01-29T07:18:14.374Z,68.88
2023-01-29T07:20:41.804Z,68.72
2023-01-29T07:23:12.652Z,68.61
2023-01-29T07:25:41.950Z,68.67
2023-01-29T07:28:08.559Z,69.01
2023-01-29T07:30:35.526Z,68.67
2023-01-29T07:33:04.398Z,69.10
2023-01-29T07:35:36.445Z,69.10
2023-01-29T07:38:03.107Z,69.29
2023-01-29T07:40:29.726Z,69.30
2023-01-29T07:42:59.962Z,69.02
2023-01-29T07:45:27.834Z,69.38
2023-01-29T07:47:55.206Z,69.19
2023-01-29T07:50:22.732Z,68.58
2023-01-29T07:52:49.299Z,68.03
2023-01-29T07:55:15.962Z,68.45
2023-01-29T07:57:42.539Z,68.57
2023-01-29T08:00:10.383Z,69.05
2023-01-29T08:02:40.307Z,69.02
2023-01-29T08:05:07.149Z,68.95
2023-01-29T08:07:33.715Z,68.38
2023-01-29T08:10:00.334Z,68.10
2023-01-29T08:12:26.865Z,67.51
2023-01-29T08:14:53.431Z,67.66
2023-01-29T08:17:22.297Z,67.29
2023-01-29T08:19:48.945Z,68.06
2023-01-29T08:22:16.591Z,67.86
2023-01-29T08:24:53.844Z,68.11
2023-01-29T08:27:26.674Z,67.07
2023-01-29T08:29:55.954Z,67.70
2023-01-29T08:32:22.566Z,67.77
2023-01-29T08:34:49.080Z,67.61
2023-01-29T08:37:15.702Z,67.34
2023-01-29T08:42:13.707Z,67.13
2023-01-29T08:44:40.283Z,67.22
2023-01-29T08:47:06.863Z,67.59
2023-01-29T08:49:35.842Z,68.09
2023-01-29T08:52:03.933Z,67.66
2023-01-29T08:54:30.528Z,67.13
2023-01-29T08:56:59.848Z,67.96
2023-01-29T08:59:26.457Z,67.87
2023-01-29T09:01:53.040Z,67.68
2023-01-29T09:04:19.599Z,67.45
2023-01-29T09:06:46.261Z,67.80
2023-01-29T09:09:14.546Z,66.88
2023-01-29T09:11:41.163Z,67.29
2023-01-29T09:14:10.184Z,67.49
2023-01-29T09:16:37.489Z,67.42
2023-01-29T09:19:04.040Z,67.69
2023-01-29T09:21:30.728Z,66.82
2023-01-29T09:23:57.634Z,66.56
2023-01-29T09:26:26.526Z,67.07
2023-01-29T09:28:53.118Z,66.69
2023-01-29T09:31:19.802Z,66.64
2023-01-29T09:33:46.499Z,66.87
2023-01-29T09:36:16.112Z,66.88
2023-01-29T09:38:45.027Z,67.28
2023-01-29T09:41:20.841Z,67.57
2023-01-29T09:44:04.787Z,68.36
2023-01-29T09:46:31.540Z,68.52
2023-01-29T09:49:02.557Z,69.17
2023-01-29T09:51:37.838Z,69.13
2023-01-29T09:54:07.528Z,68.36
2023-01-29T09:56:35.231Z,68.50
2023-01-29T09:59:02.156Z,68.49
2023-01-29T10:01:49.187Z,68.26
2023-01-29T10:04:18.936Z,68.71
2023-01-29T10:06:54.560Z,68.30
2023-01-29T10:09:39.362Z,68.09
2023-01-29T10:12:24.873Z,68.27
2023-01-29T10:14:54.129Z,69.12
2023-01-29T10:17:43.576Z,68.78
2023-01-29T10:20:16.235Z,69.60
2023-01-29T10:22:42.869Z,69.37
2023-01-29T10:25:20.704Z,68.71
2023-01-29T10:27:50.918Z,68.27
2023-01-29T10:30:22.159Z,68.51
2023-01-29T10:32:50.160Z,68.89
2023-01-29T10:35:31.770Z,69.86
2023-01-29T10:38:02.265Z,69.57
2023-01-29T10:40:38.023Z,69.81
2023-01-29T10:43:16.360Z,69.66
2023-01-29T10:45:49.513Z,69.77
2023-01-29T10:48:34.777Z,69.62
2023-01-29T10:51:21.641Z,70.54
2023-01-29T10:53:57.446Z,69.82
2023-01-29T10:56:24.066Z,69.34
2023-01-29T10:58:50.835Z,69.20
2023-01-29T11:01:17.711Z,68.74
2023-01-29T11:03:44.464Z,69.27
2023-01-29T11:06:45.730Z,69.28
2023-01-29T11:09:34.561Z,69.11
2023-01-29T11:12:01.174Z,70.00
2023-01-29T11:14:27.736Z,69.89
2023-01-29T11:16:56.841Z,70.06
2023-01-29T11:19:36.962Z,69.84
2023-01-29T11:22:04.479Z,69.53
2023-01-29T11:24:31.195Z,69.08
2023-01-29T11:26:58.840Z,69.42
2023-01-29T11:29:44.908Z,68.99
2023-01-29T11:32:14.577Z,69.45
2023-01-29T11:34:59.731Z,68.79
2023-01-29T11:37:37.320Z,68.87
2023-01-29T11:40:20.734Z,69.04
2023-01-29T11:42:51.334Z,69.02
2023-01-29T11:45:29.945Z,68.55
2023-01-29T11:47:58.435Z,68.32
2023-01-29T11:50:34.519Z,67.98
2023-01-29T11:53:01.751Z,68.79
2023-01-29T11:55:41.009Z,67.77
2023-01-29T11:58:18.595Z,67.97
2023-01-29T12:00:50.788Z,67.35
2023-01-29T12:03:24.870Z,67.67
2023-01-29T12:05:57.094Z,68.42
2023-01-29T12:08:24.414Z,67.02
2023-01-29T12:11:06.842Z,66.82
2023-01-29T12:13:35.724Z,66.37
2023-01-29T12:16:10.803Z,66.63
2023-01-29T12:18:43.578Z,67.20
2023-01-29T12:21:14.363Z,67.06
2023-01-29T12:23:59.905Z,66.79
2023-01-29T12:26:44.637Z,66.71
2023-01-29T12:29:20.619Z,67.49
2023-01-29T12:31:57.625Z,66.91
2023-01-29T12:34:31.180Z,66.95
2023-01-29T12:37:00.789Z,67.30
2023-01-29T12:39:29.507Z,66.81
2023-01-29T12:42:04.705Z,66.58
2023-01-29T12:44:42.536Z,66.60
2023-01-29T12:47:17.215Z,66.97
2023-01-29T12:49:46.758Z,66.90
2023-01-29T12:52:17.966Z,66.89
2023-01-29T12:54:50.056Z,67.18
2023-01-29T12:57:20.750Z,66.67
2023-01-29T12:59:49.692Z,67.05
2023-01-29T13:02:39.737Z,66.40
2023-01-29T13:05:41.794Z,66.34
2023-01-29T13:08:31.455Z,65.58
2023-01-29T13:11:01.579Z,65.80
2023-01-29T13:13:38.654Z,66.56
2023-01-29T13:16:09.984Z,65.89
2023-01-29T13:18:40.589Z,65.96
2023-01-29T13:21:12.089Z,65.95
2023-01-29T13:23:42.780Z,65.64
2023-01-29T13:26:09.512Z,65.32
2023-01-29T13:28:36.431Z,65.75
2023-01-29T13:31:12.272Z,65.36
2023-01-29T13:33:40.646Z,65.42
2023-01-29T13:36:11.327Z,64.63
2023-01-29T13:38:38.074Z,64.75
2023-01-29T13:41:05.882Z,65.05
2023-01-29T13:43:37.863Z,65.05
2023-01-29T13:46:12.406Z,66.15
2023-01-29T13:48:43.780Z,65.60
2023-01-29T13:51:17.800Z,65.42
2023-01-29T13:53:52.420Z,65.51
2023-01-29T13:56:39.356Z,65.25
2023-01-29T13:59:08.284Z,65.19
2023-01-29T14:01:47.258Z,65.54
2023-01-29T14:04:28.347Z,65.01
2023-01-29T14:06:55.630Z,64.60
2023-01-29T14:09:32.471Z,65.05
2023-01-29T14:11:59.412Z,64.77
2023-01-29T14:14:44.678Z,64.94
2023-01-29T14:17:12.045Z,64.86
2023-01-29T14:19:38.569Z,65.54
2023-01-29T14:22:05.618Z,65.18
2023-01-29T14:24:33.744Z,65.56
2023-01-29T14:27:00.447Z,65.84
2023-01-29T14:29:43.540Z,65.73
2023-01-29T14:32:10.115Z,66.28
2023-01-29T14:34:42.640Z,66.12
2023-01-29T14:37:15.080Z,66.17
2023-01-29T14:39:47.184Z,65.32
2023-01-29T14:42:22.847Z,65.42
2023-01-29T14:44:55.516Z,65.59
2023-01-29T14:47:22.089Z,66.10
2023-01-29T14:49:49.584Z,65.42
2023-01-29T14:52:17.167Z,64.65
2023-01-29T14:54:47.186Z,64.22
2023-01-29T14:57:15.269Z,64.73
2023-01-29T14:59:55.243Z,65.02
2023-01-29T15:02:33.758Z,64.96
2023-01-29T15:05:01.585Z,65.40
2023-01-29T15:07:42.854Z,64.64
2023-01-29T15:10:22.859Z,65.05
2023-01-29T15:12:50.399Z,65.38
2023-01-29T15:15:20.633Z,65.10
2023-01-29T15:18:06.011Z,65.53
2023-01-29T15:20:33.853Z,65.11
2023-01-29T15:23:03.126Z,66.11
2023-01-29T15:25:34.433Z,65.90
2023-01-29T15:28:02.263Z,66.15
2023-01-29T15:30:33.133Z,66.40
2023-01-29T15:33:00.695Z,65.84
2023-01-29T15:35:40.714Z,65.85
2023-01-29T15:38:07.511Z,66.76
2023-01-29T15:40:39.306Z,66.50
2023-01-29T15:43:20.294Z,66.12
2023-01-29T15:45:47.345Z,66.58
2023-01-29T15:48:17.454Z,66.82
2023-01-29T15:50:44.492Z,67.30
2023-01-29T15:53:20.101Z,67.64
2023-01-29T15:55:49.844Z,68.80
2023-01-29T15:58:18.406Z,68.67
2023-01-29T16:00:55.755Z,68.14
2023-01-29T16:03:23.375Z,67.60
2023-01-29T16:05:50.690Z,67.76
2023-01-29T16:08:18.637Z,67.29
2023-01-29T16:10:45.932Z,66.79
2023-01-29T16:13:19.982Z,67.17
2023-01-29T16:15:57.907Z,66.88
2023-01-29T16:19:01.140Z,67.18
2023-01-29T16:21:31.348Z,67.67
2023-01-29T16:24:02.603Z,67.72
2023-01-29T16:26:31.970Z,68.05
2023-01-29T16:29:03.879Z,68.14
2023-01-29T16:31:32.003Z,68.48
2023-01-29T16:34:00.078Z,67.99
2023-01-29T16:36:27.953Z,67.65
2023-01-29T16:38:57.774Z,67.60
2023-01-29T16:41:24.578Z,67.81
2023-01-29T16:44:03.548Z,68.71
2023-01-29T16:46:38.238Z,69.90
2023-01-29T16:49:25.151Z,71.11
2023-01-29T16:51:52.217Z,70.87
2023-01-29T16:54:22.257Z,71.66
2023-01-29T16:56:50.468Z,71.55
2023-01-29T16:59:19.074Z,72.08
2023-01-29T17:01:45.740Z,73.65
2023-01-29T17:04:17.173Z,73.99
2023-01-29T17:07:06.458Z,75.60
2023-01-29T17:09:35.257Z,74.92
2023-01-29T17:12:03.777Z,75.31
2023-01-29T17:14:31.812Z,75.04
2023-01-29T17:17:14.318Z,75.31
2023-01-29T17:19:40.982Z,75.80
2023-01-29T17:22:14.869Z,75.53
2023-01-29T17:24:41.850Z,75.09
2023-01-29T17:27:17.068Z,75.46
2023-01-29T17:29:43.680Z,75.94
2023-01-29T17:32:10.473Z,76.29
2023-01-29T17:34:37.530Z,75.99
2023-01-29T17:37:04.102Z,75.46
2023-01-29T17:39:30.722Z,75.72
2023-01-29T17:42:01.453Z,75.74
2023-01-29T17:44:28.135Z,75.67
2023-01-29T17:46:54.739Z,75.41
2023-01-29T17:49:24.428Z,74.60
2023-01-29T17:51:54.919Z,74.26
2023-01-29T17:54:22.164Z,73.85
2023-01-29T17:56:52.009Z,73.12
2023-01-29T17:59:22.484Z,71.95
2023-01-29T18:01:50.194Z,71.99
2023-01-29T18:04:17.279Z,71.86
2023-01-29T18:06:44.928Z,71.48
2023-01-29T18:09:15.438Z,70.93
2023-01-29T18:11:42.429Z,71.23
2023-01-29T18:14:14.157Z,71.27
2023-01-29T18:16:42.226Z,70.79
2023-01-29T18:19:15.116Z,71.35
2023-01-29T18:21:41.900Z,71.45
2023-01-29T18:24:10.689Z,71.71
2023-01-29T18:26:38.130Z,71.65
2023-01-29T18:29:05.071Z,71.39
2023-01-29T18:31:31.874Z,72.02
2023-01-29T18:33:59.620Z,73.54
2023-01-29T18:36:26.276Z,74.09
2023-01-29T18:38:52.946Z,73.92
2023-01-29T18:41:19.563Z,73.73
2023-01-29T18:43:46.081Z,74.37
2023-01-29T18:46:15.652Z,74.13
2023-01-29T18:48:42.918Z,73.62
2023-01-29T18:51:09.730Z,72.88
2023-01-29T18:53:36.385Z,73.05
2023-01-29T18:56:05.386Z,72.70
2023-01-29T18:58:35.663Z,72.82
2023-01-29T19:01:07.155Z,72.99
2023-01-29T19:03:33.827Z,72.85
2023-01-29T19:06:06.639Z,72.77
2023-01-29T19:08:36.590Z,72.88
2023-01-29T19:11:05.567Z,72.41
2023-01-29T19:13:34.832Z,72.04
2023-01-29T19:16:02.476Z,72.88
2023-01-29T19:18:29.048Z,73.10
2023-01-29T19:20:55.703Z,73.32
2023-01-29T19:23:22.563Z,73.57
2023-01-29T19:25:49.253Z,72.42
2023-01-29T19:28:15.984Z,72.63
2023-01-29T19:30:42.673Z,72.76
2023-01-29T19:33:10.319Z,72.93
2023-01-29T19:35:37.204Z,73.36
2023-01-29T19:38:04.387Z,73.37
2023-01-29T19:40:31.099Z,72.77
2023-01-29T19:43:00.749Z,73.19
2023-01-29T19:45:37.355Z,73.73
2023-01-29T19:48:17.074Z,74.95
2023-01-29T19:50:43.648Z,75.85
2023-01-29T19:53:10.309Z,75.43
2023-01-29T19:55:36.921Z,75.77
2023-01-29T19:58:04.763Z,76.57
2023-01-29T20:00:31.444Z,75.42
2023-01-29T20:02:58.139Z,76.33
2023-01-29T20:05:29.385Z,75.80
2023-01-29T20:07:55.978Z,75.79
2023-01-29T20:10:22.625Z,76.02
2023-01-29T20:12:49.438Z,76.18
2023-01-29T20:15:17.626Z,75.70
2023-01-29T20:17:48.389Z,76.60
2023-01-29T20:20:16.637Z,75.95
2023-01-29T20:22:45.552Z,76.10
2023-01-29T20:25:16.519Z,76.57
2023-01-29T20:27:43.274Z,76.10
2023-01-29T20:30:10.134Z,76.27
2023-01-29T20:32:36.748Z,76.01
2023-01-29T20:35:03.742Z,77.37
2023-01-29T20:37:30.355Z,76.49
2023-01-29T20:40:00.015Z,76.78
2023-01-29T20:42:26.623Z,76.82
2023-01-29T20:44:53.413Z,76.21
2023-01-29T20:47:20.096Z,76.44
2023-01-29T20:49:47.561Z,76.23
2023-01-29T20:52:20.513Z,76.09
2023-01-29T20:54:47.269Z,74.91
2023-01-29T20:57:13.886Z,75.53
2023-01-29T20:59:40.595Z,74.85
2023-01-29T21:02:07.147Z,75.82
2023-01-29T21:04:33.745Z,76.17
2023-01-29T21:07:00.531Z,75.77
2023-01-29T21:09:30.010Z,74.87
2023-01-29T21:11:56.564Z,74.65
2023-01-29T21:14:23.229Z,75.24
2023-01-29T21:16:52.161Z,74.80
2023-01-29T21:19:18.830Z,74.61
2023-01-29T21:21:45.398Z,74.26
2023-01-29T21:24:13.061Z,75.02
2023-01-29T21:26:47.052Z,73.71
2023-01-29T21:29:14.480Z,74.65
2023-01-29T21:31:41.345Z,74.36
2023-01-29T21:34:08.517Z,73.65
2023-01-29T21:36:35.692Z,73.69
2023-01-29T21:39:16.425Z,73.75
2023-01-29T21:42:05.930Z,73.07
2023-01-29T21:44:35.203Z,73.55
2023-01-29T21:47:12.372Z,73.52
2023-01-29T21:49:40.407Z,73.37
2023-01-29T21:52:09.776Z,72.76
2023-01-29T21:54:36.621Z,72.81
2023-01-29T21:57:04.660Z,73.08
2023-01-29T21:59:34.636Z,72.86
2023-01-29T22:02:01.513Z,73.21
2023-01-29T22:04:29.752Z,73.08
2023-01-29T22:06:56.376Z,72.70
2023-01-29T22:09:23.114Z,72.57
2023-01-29T22:11:49.887Z,72.65
2023-01-29T22:14:18.412Z,72.67
2023-01-29T22:16:48.057Z,73.54
2023-01-29T22:19:14.895Z,72.93
2023-01-29T22:21:41.617Z,72.85
2023-01-29T22:24:08.503Z,72.68
2023-01-29T22:26:35.773Z,72.90
2023-01-29T22:29:02.552Z,72.26
2023-01-29T22:31:29.495Z,72.09
2023-01-29T22:33:56.349Z,72.37
2023-01-29T22:36:22.864Z,71.67
2023-01-29T22:38:49.564Z,72.10
2023-01-29T22:41:16.106Z,71.81
2023-01-29T22:43:44.002Z,71.79
2023-01-29T22:46:14.058Z,72.38
2023-01-29T22:48:48.565Z,72.22
2023-01-29T22:51:15.238Z,72.25
2023-01-29T22:53:49.307Z,71.86
2023-01-29T22:56:16.481Z,71.78
2023-01-29T22:58:43.036Z,72.10
2023-01-29T23:01:09.941Z,71.86
2023-01-29T23:03:36.662Z,72.37
2023-01-29T23:06:03.961Z,72.01
2023-01-29T23:08:32.403Z,71.70
2023-01-29T23:11:14.205Z,72.06
2023-01-29T23:13:45.638Z,72.24
2023-01-29T23:16:12.620Z,71.46
2023-01-29T23:18:39.216Z,71.44
2023-01-29T23:21:05.953Z,72.06
2023-01-29T23:23:35.612Z,72.28
2023-01-29T23:26:22.042Z,72.59
2023-01-29T23:28:51.142Z,72.20
2023-01-29T23:31:18.665Z,72.03
2023-01-29T23:33:45.367Z,72.08
2023-01-29T23:36:15.055Z,71.75
2023-01-29T23:38:41.742Z,71.84
2023-01-29T23:41:08.337Z,72.33
2023-01-29T23:43:35.141Z,72.52
2023-01-29T23:46:01.855Z,72.54
2023-01-29T23:48:28.558Z,72.25
2023-01-29T23:50:55.137Z,71.74
2023-01-29T23:53:21.750Z,71.76
2023-01-29T23:55:57.559Z,72.53
2023-01-29T23:58:24.314Z,72.49
